sensor_id;sensor_type;location;lat;lon;timestamp;P1;durP1;ratioP1;P2;durP2;ratioP2
66163;SDS011;52962;51.088;3.096;2022-08-30T00:01:30;2.10;;;2.10;;
66163;SDS011;52962;51.088;3.096;2022-08-30T00:03:58;2.00;;;2.00;;
66163;SDS011;52962;51.088;3.096;2022-08-30T00:06:28;1.83;;;1.83;;
66163;SDS011;52962;51.088;3.096;2022-08-30T00:08:56;2.45;;;2.45;;
66163;SDS011;52962;51.088;3.096;2022-08-30T00:11:26;3.05;;;2.95;;
66163;SDS011;52962;51.088;3.096;2022-08-30T00:13:55;2.17;;;2.17;;
66163;SDS011;52962;51.088;3.096;2022-08-30T00:16:24;2.42;;;2.42;;
66163;SDS011;52962;51.088;3.096;2022-08-30T00:18:52;2.30;;;2.30;;
66163;SDS011;52962;51.088;3.096;2022-08-30T00:21:21;2.28;;;2.28;;
66163;SDS011;52962;51.088;3.096;2022-08-30T00:23:49;2.72;;;2.67;;
66163;SDS011;52962;51.088;3.096;2022-08-30T00:26:17;2.42;;;2.42;;
66163;SDS011;52962;51.088;3.096;2022-08-30T00:28:47;2.55;;;2.45;;
66163;SDS011;52962;51.088;3.096;2022-08-30T00:31:14;5.18;;;5.00;;
66163;SDS011;52962;51.088;3.096;2022-08-30T00:36:10;3.15;;;3.05;;
66163;SDS011;52962;51.088;3.096;2022-08-30T00:38:38;2.42;;;2.42;;
66163;SDS011;52962;51.088;3.096;2022-08-30T00:41:06;2.42;;;2.42;;
66163;SDS011;52962;51.088;3.096;2022-08-30T00:43:34;2.55;;;2.45;;
66163;SDS011;52962;51.088;3.096;2022-08-30T00:48:35;1.70;;;1.70;;
66163;SDS011;52962;51.088;3.096;2022-08-30T00:51:06;2.50;;;2.40;;
66163;SDS011;52962;51.088;3.096;2022-08-30T00:53:38;2.58;;;2.50;;
66163;SDS011;52962;51.088;3.096;2022-08-30T00:56:08;2.47;;;2.47;;
66163;SDS011;52962;51.088;3.096;2022-08-30T00:58:38;2.63;;;2.53;;
66163;SDS011;52962;51.088;3.096;2022-08-30T01:01:12;2.35;;;2.35;;
66163;SDS011;52962;51.088;3.096;2022-08-30T01:03:40;4.00;;;3.90;;
66163;SDS011;52962;51.088;3.096;2022-08-30T01:06:09;2.40;;;2.40;;
66163;SDS011;52962;51.088;3.096;2022-08-30T01:08:37;2.33;;;2.22;;
66163;SDS011;52962;51.088;3.096;2022-08-30T01:11:05;2.42;;;2.42;;
66163;SDS011;52962;51.088;3.096;2022-08-30T01:13:34;3.22;;;3.13;;
66163;SDS011;52962;51.088;3.096;2022-08-30T01:16:02;2.85;;;2.75;;
66163;SDS011;52962;51.088;3.096;2022-08-30T01:18:34;2.72;;;2.67;;
66163;SDS011;52962;51.088;3.096;2022-08-30T01:21:07;4.20;;;4.00;;
66163;SDS011;52962;51.088;3.096;2022-08-30T01:23:43;4.03;;;3.83;;
66163;SDS011;52962;51.088;3.096;2022-08-30T01:26:13;3.20;;;3.10;;
66163;SDS011;52962;51.088;3.096;2022-08-30T01:28:47;2.38;;;2.38;;
66163;SDS011;52962;51.088;3.096;2022-08-30T01:31:20;2.28;;;2.28;;
66163;SDS011;52962;51.088;3.096;2022-08-30T01:33:48;2.40;;;2.38;;
66163;SDS011;52962;51.088;3.096;2022-08-30T01:36:16;3.10;;;3.00;;
66163;SDS011;52962;51.088;3.096;2022-08-30T01:38:48;2.70;;;2.65;;
66163;SDS011;52962;51.088;3.096;2022-08-30T01:41:19;3.63;;;3.53;;
66163;SDS011;52962;51.088;3.096;2022-08-30T01:43:52;4.00;;;3.83;;
66163;SDS011;52962;51.088;3.096;2022-08-30T01:46:22;3.10;;;3.00;;
66163;SDS011;52962;51.088;3.096;2022-08-30T01:48:54;2.80;;;2.75;;
66163;SDS011;52962;51.088;3.096;2022-08-30T01:51:23;3.28;;;3.17;;
66163;SDS011;52962;51.088;3.096;2022-08-30T01:53:54;2.75;;;2.65;;
66163;SDS011;52962;51.088;3.096;2022-08-30T01:56:23;2.85;;;2.75;;
66163;SDS011;52962;51.088;3.096;2022-08-30T01:58:52;5.95;;;5.75;;
66163;SDS011;52962;51.088;3.096;2022-08-30T02:01:27;3.10;;;3.00;;
66163;SDS011;52962;51.088;3.096;2022-08-30T02:03:58;2.92;;;2.83;;
66163;SDS011;52962;51.088;3.096;2022-08-30T02:06:26;3.17;;;3.08;;
66163;SDS011;52962;51.088;3.096;2022-08-30T02:08:55;3.60;;;3.50;;
66163;SDS011;52962;51.088;3.096;2022-08-30T02:11:24;3.15;;;3.05;;
66163;SDS011;52962;51.088;3.096;2022-08-30T02:13:52;4.70;;;4.60;;
66163;SDS011;52962;51.088;3.096;2022-08-30T02:16:20;3.47;;;3.38;;
66163;SDS011;52962;51.088;3.096;2022-08-30T02:18:49;5.25;;;5.05;;
66163;SDS011;52962;51.088;3.096;2022-08-30T02:21:18;4.38;;;4.28;;
66163;SDS011;52962;51.088;3.096;2022-08-30T02:23:47;4.45;;;4.25;;
66163;SDS011;52962;51.088;3.096;2022-08-30T02:26:16;6.18;;;5.97;;
66163;SDS011;52962;51.088;3.096;2022-08-30T02:28:44;6.32;;;6.13;;
66163;SDS011;52962;51.088;3.096;2022-08-30T02:31:16;4.72;;;4.63;;
66163;SDS011;52962;51.088;3.096;2022-08-30T02:33:46;5.82;;;5.63;;
66163;SDS011;52962;51.088;3.096;2022-08-30T02:36:16;5.72;;;5.53;;
66163;SDS011;52962;51.088;3.096;2022-08-30T02:38:44;6.38;;;6.18;;
66163;SDS011;52962;51.088;3.096;2022-08-30T02:43:41;5.43;;;5.22;;
66163;SDS011;52962;51.088;3.096;2022-08-30T02:46:09;6.18;;;5.90;;
66163;SDS011;52962;51.088;3.096;2022-08-30T02:48:37;12.32;;;11.90;;
66163;SDS011;52962;51.088;3.096;2022-08-30T02:51:06;6.22;;;6.03;;
66163;SDS011;52962;51.088;3.096;2022-08-30T02:53:37;6.00;;;5.80;;
66163;SDS011;52962;51.088;3.096;2022-08-30T02:56:05;6.40;;;6.10;;
66163;SDS011;52962;51.088;3.096;2022-08-30T02:58:33;5.15;;;5.03;;
66163;SDS011;52962;51.088;3.096;2022-08-30T03:03:31;4.97;;;4.53;;
66163;SDS011;52962;51.088;3.096;2022-08-30T03:06:00;6.43;;;6.03;;
66163;SDS011;52962;51.088;3.096;2022-08-30T03:08:28;5.15;;;5.03;;
66163;SDS011;52962;51.088;3.096;2022-08-30T03:10:56;5.40;;;5.25;;
66163;SDS011;52962;51.088;3.096;2022-08-30T03:13:25;4.78;;;4.65;;
66163;SDS011;52962;51.088;3.096;2022-08-30T03:15:53;5.28;;;5.15;;
66163;SDS011;52962;51.088;3.096;2022-08-30T03:18:22;5.05;;;4.95;;
66163;SDS011;52962;51.088;3.096;2022-08-30T03:20:52;4.10;;;4.00;;
66163;SDS011;52962;51.088;3.096;2022-08-30T03:23:20;4.55;;;4.45;;
66163;SDS011;52962;51.088;3.096;2022-08-30T03:25:49;10.10;;;9.75;;
66163;SDS011;52962;51.088;3.096;2022-08-30T03:28:17;4.80;;;4.70;;
66163;SDS011;52962;51.088;3.096;2022-08-30T03:30:45;4.38;;;4.22;;
66163;SDS011;52962;51.088;3.096;2022-08-30T03:33:13;9.40;;;9.10;;
66163;SDS011;52962;51.088;3.096;2022-08-30T03:35:45;4.68;;;4.53;;
66163;SDS011;52962;51.088;3.096;2022-08-30T03:38:13;4.32;;;4.22;;
66163;SDS011;52962;51.088;3.096;2022-08-30T03:40:41;4.65;;;4.55;;
66163;SDS011;52962;51.088;3.096;2022-08-30T03:43:09;4.45;;;4.35;;
66163;SDS011;52962;51.088;3.096;2022-08-30T03:45:38;3.90;;;3.80;;
66163;SDS011;52962;51.088;3.096;2022-08-30T03:48:06;4.72;;;4.63;;
66163;SDS011;52962;51.088;3.096;2022-08-30T03:50:34;5.40;;;5.18;;
66163;SDS011;52962;51.088;3.096;2022-08-30T03:53:03;4.20;;;4.10;;
66163;SDS011;52962;51.088;3.096;2022-08-30T03:55:31;4.30;;;4.20;;
66163;SDS011;52962;51.088;3.096;2022-08-30T03:58:00;8.80;;;8.50;;
66163;SDS011;52962;51.088;3.096;2022-08-30T04:00:28;3.88;;;3.78;;
66163;SDS011;52962;51.088;3.096;2022-08-30T04:05:23;2.83;;;2.72;;
66163;SDS011;52962;51.088;3.096;2022-08-30T04:07:52;4.10;;;4.00;;
66163;SDS011;52962;51.088;3.096;2022-08-30T04:10:21;4.65;;;4.45;;
66163;SDS011;52962;51.088;3.096;2022-08-30T04:12:49;5.20;;;5.00;;
66163;SDS011;52962;51.088;3.096;2022-08-30T04:17:46;2.88;;;2.78;;
66163;SDS011;52962;51.088;3.096;2022-08-30T04:20:14;3.17;;;3.08;;
66163;SDS011;52962;51.088;3.096;2022-08-30T04:22:43;3.80;;;3.70;;
66163;SDS011;52962;51.088;3.096;2022-08-30T04:27:42;2.35;;;2.15;;
66163;SDS011;52962;51.088;3.096;2022-08-30T04:30:11;2.67;;;2.63;;
66163;SDS011;52962;51.088;3.096;2022-08-30T04:32:39;2.72;;;2.63;;
66163;SDS011;52962;51.088;3.096;2022-08-30T04:35:07;2.83;;;2.60;;
66163;SDS011;52962;51.088;3.096;2022-08-30T04:37:36;2.78;;;2.67;;
66163;SDS011;52962;51.088;3.096;2022-08-30T04:40:05;1.80;;;1.80;;
66163;SDS011;52962;51.088;3.096;2022-08-30T04:42:35;2.58;;;2.47;;
66163;SDS011;52962;51.088;3.096;2022-08-30T04:45:05;1.70;;;1.70;;
66163;SDS011;52962;51.088;3.096;2022-08-30T04:47:34;2.53;;;2.47;;
66163;SDS011;52962;51.088;3.096;2022-08-30T04:50:04;2.00;;;1.90;;
66163;SDS011;52962;51.088;3.096;2022-08-30T04:52:33;2.15;;;2.05;;
66163;SDS011;52962;51.088;3.096;2022-08-30T04:55:01;2.47;;;2.40;;
66163;SDS011;52962;51.088;3.096;2022-08-30T04:57:33;2.05;;;1.95;;
66163;SDS011;52962;51.088;3.096;2022-08-30T05:00:01;1.77;;;1.77;;
66163;SDS011;52962;51.088;3.096;2022-08-30T05:02:31;2.15;;;2.15;;
66163;SDS011;52962;51.088;3.096;2022-08-30T05:04:59;2.53;;;2.42;;
66163;SDS011;52962;51.088;3.096;2022-08-30T05:07:45;1.95;;;1.95;;
66163;SDS011;52962;51.088;3.096;2022-08-30T05:10:13;1.80;;;1.70;;
66163;SDS011;52962;51.088;3.096;2022-08-30T05:15:09;2.17;;;2.17;;
66163;SDS011;52962;51.088;3.096;2022-08-30T05:17:39;2.20;;;2.20;;
66163;SDS011;52962;51.088;3.096;2022-08-30T05:20:08;2.00;;;1.90;;
66163;SDS011;52962;51.088;3.096;2022-08-30T05:22:38;1.77;;;1.77;;
66163;SDS011;52962;51.088;3.096;2022-08-30T05:25:20;1.83;;;1.83;;
66163;SDS011;52962;51.088;3.096;2022-08-30T05:27:49;1.58;;;1.58;;
66163;SDS011;52962;51.088;3.096;2022-08-30T05:32:46;1.58;;;1.58;;
66163;SDS011;52962;51.088;3.096;2022-08-30T05:35:15;1.30;;;1.30;;
66163;SDS011;52962;51.088;3.096;2022-08-30T05:37:50;3.97;;;3.88;;
66163;SDS011;52962;51.088;3.096;2022-08-30T05:40:19;1.70;;;1.70;;
66163;SDS011;52962;51.088;3.096;2022-08-30T05:42:48;2.15;;;2.05;;
66163;SDS011;52962;51.088;3.096;2022-08-30T05:45:15;1.63;;;1.63;;
66163;SDS011;52962;51.088;3.096;2022-08-30T05:47:43;1.65;;;1.65;;
66163;SDS011;52962;51.088;3.096;2022-08-30T05:50:14;2.03;;;1.92;;
66163;SDS011;52962;51.088;3.096;2022-08-30T05:52:42;2.13;;;2.13;;
66163;SDS011;52962;51.088;3.096;2022-08-30T05:55:10;1.65;;;1.65;;
66163;SDS011;52962;51.088;3.096;2022-08-30T05:57:39;3.90;;;3.80;;
66163;SDS011;52962;51.088;3.096;2022-08-30T06:00:09;1.65;;;1.55;;
66163;SDS011;52962;51.088;3.096;2022-08-30T06:02:39;1.83;;;1.83;;
66163;SDS011;52962;51.088;3.096;2022-08-30T06:05:08;1.73;;;1.73;;
66163;SDS011;52962;51.088;3.096;2022-08-30T06:07:41;1.98;;;1.98;;
66163;SDS011;52962;51.088;3.096;2022-08-30T06:10:09;1.40;;;1.40;;
66163;SDS011;52962;51.088;3.096;2022-08-30T06:12:40;1.90;;;1.90;;
66163;SDS011;52962;51.088;3.096;2022-08-30T06:15:08;1.73;;;1.73;;
66163;SDS011;52962;51.088;3.096;2022-08-30T06:17:37;1.83;;;1.83;;
66163;SDS011;52962;51.088;3.096;2022-08-30T06:20:06;1.95;;;1.95;;
66163;SDS011;52962;51.088;3.096;2022-08-30T06:22:35;2.17;;;2.17;;
66163;SDS011;52962;51.088;3.096;2022-08-30T06:27:33;2.10;;;2.10;;
66163;SDS011;52962;51.088;3.096;2022-08-30T06:30:01;1.85;;;1.85;;
66163;SDS011;52962;51.088;3.096;2022-08-30T06:32:29;2.13;;;1.98;;
66163;SDS011;52962;51.088;3.096;2022-08-30T06:34:57;2.05;;;1.95;;
66163;SDS011;52962;51.088;3.096;2022-08-30T06:37:25;2.35;;;2.25;;
66163;SDS011;52962;51.088;3.096;2022-08-30T06:39:55;1.88;;;1.88;;
66163;SDS011;52962;51.088;3.096;2022-08-30T06:42:25;2.05;;;2.05;;
66163;SDS011;52962;51.088;3.096;2022-08-30T06:44:57;2.83;;;2.72;;
66163;SDS011;52962;51.088;3.096;2022-08-30T06:47:26;2.03;;;2.03;;
66163;SDS011;52962;51.088;3.096;2022-08-30T06:49:55;2.47;;;2.38;;
66163;SDS011;52962;51.088;3.096;2022-08-30T06:52:24;2.47;;;2.38;;
66163;SDS011;52962;51.088;3.096;2022-08-30T06:54:54;3.10;;;3.00;;
66163;SDS011;52962;51.088;3.096;2022-08-30T06:57:25;2.83;;;2.75;;
66163;SDS011;52962;51.088;3.096;2022-08-30T06:59:54;3.35;;;3.20;;
66163;SDS011;52962;51.088;3.096;2022-08-30T07:02:22;2.67;;;2.58;;
66163;SDS011;52962;51.088;3.096;2022-08-30T07:04:50;2.20;;;2.20;;
66163;SDS011;52962;51.088;3.096;2022-08-30T07:07:18;2.70;;;2.60;;
66163;SDS011;52962;51.088;3.096;2022-08-30T07:12:14;2.88;;;2.78;;
66163;SDS011;52962;51.088;3.096;2022-08-30T07:14:44;5.55;;;5.38;;
66163;SDS011;52962;51.088;3.096;2022-08-30T07:17:12;3.22;;;3.13;;
66163;SDS011;52962;51.088;3.096;2022-08-30T07:20:00;2.60;;;2.50;;
66163;SDS011;52962;51.088;3.096;2022-08-30T07:22:28;2.78;;;2.67;;
66163;SDS011;52962;51.088;3.096;2022-08-30T07:24:56;2.42;;;2.42;;
66163;SDS011;52962;51.088;3.096;2022-08-30T07:27:24;2.30;;;2.20;;
66163;SDS011;52962;51.088;3.096;2022-08-30T07:29:53;2.80;;;2.70;;
66163;SDS011;52962;51.088;3.096;2022-08-30T07:32:23;2.67;;;2.58;;
66163;SDS011;52962;51.088;3.096;2022-08-30T07:34:51;2.80;;;2.70;;
66163;SDS011;52962;51.088;3.096;2022-08-30T07:37:19;2.65;;;2.55;;
66163;SDS011;52962;51.088;3.096;2022-08-30T07:42:16;3.15;;;3.05;;
66163;SDS011;52962;51.088;3.096;2022-08-30T07:44:44;3.05;;;2.95;;
66163;SDS011;52962;51.088;3.096;2022-08-30T07:47:13;3.03;;;2.92;;
66163;SDS011;52962;51.088;3.096;2022-08-30T07:49:42;3.08;;;2.97;;
66163;SDS011;52962;51.088;3.096;2022-08-30T07:52:09;3.17;;;3.03;;
66163;SDS011;52962;51.088;3.096;2022-08-30T07:54:37;2.80;;;2.70;;
66163;SDS011;52962;51.088;3.096;2022-08-30T07:57:05;2.67;;;2.58;;
66163;SDS011;52962;51.088;3.096;2022-08-30T07:59:33;2.70;;;2.60;;
66163;SDS011;52962;51.088;3.096;2022-08-30T08:02:01;3.30;;;3.20;;
66163;SDS011;52962;51.088;3.096;2022-08-30T08:04:31;5.50;;;5.30;;
66163;SDS011;52962;51.088;3.096;2022-08-30T08:07:00;3.10;;;3.00;;
66163;SDS011;52962;51.088;3.096;2022-08-30T08:09:28;2.95;;;2.85;;
66163;SDS011;52962;51.088;3.096;2022-08-30T08:14:24;3.47;;;3.38;;
66163;SDS011;52962;51.088;3.096;2022-08-30T08:16:52;3.28;;;3.17;;
66163;SDS011;52962;51.088;3.096;2022-08-30T08:19:20;3.75;;;3.65;;
66163;SDS011;52962;51.088;3.096;2022-08-30T08:21:49;4.35;;;4.25;;
66163;SDS011;52962;51.088;3.096;2022-08-30T08:24:40;3.25;;;3.13;;
66163;SDS011;52962;51.088;3.096;2022-08-30T08:27:08;2.65;;;2.55;;
66163;SDS011;52962;51.088;3.096;2022-08-30T08:29:35;3.00;;;2.90;;
66163;SDS011;52962;51.088;3.096;2022-08-30T08:32:03;2.75;;;2.65;;
66163;SDS011;52962;51.088;3.096;2022-08-30T08:34:31;2.80;;;2.70;;
66163;SDS011;52962;51.088;3.096;2022-08-30T08:37:01;2.85;;;2.75;;
66163;SDS011;52962;51.088;3.096;2022-08-30T08:39:29;2.63;;;2.53;;
66163;SDS011;52962;51.088;3.096;2022-08-30T08:41:58;2.83;;;2.72;;
66163;SDS011;52962;51.088;3.096;2022-08-30T08:44:39;2.42;;;2.33;;
66163;SDS011;52962;51.088;3.096;2022-08-30T08:47:22;2.40;;;2.28;;
66163;SDS011;52962;51.088;3.096;2022-08-30T08:49:54;3.38;;;3.28;;
66163;SDS011;52962;51.088;3.096;2022-08-30T08:52:28;2.83;;;2.72;;
66163;SDS011;52962;51.088;3.096;2022-08-30T08:55:28;2.42;;;2.42;;
66163;SDS011;52962;51.088;3.096;2022-08-30T08:57:56;2.70;;;2.60;;
66163;SDS011;52962;51.088;3.096;2022-08-30T09:00:25;2.83;;;2.72;;
66163;SDS011;52962;51.088;3.096;2022-08-30T09:02:55;2.95;;;2.85;;
66163;SDS011;52962;51.088;3.096;2022-08-30T09:05:25;3.22;;;3.10;;
66163;SDS011;52962;51.088;3.096;2022-08-30T09:07:57;3.15;;;3.05;;
66163;SDS011;52962;51.088;3.096;2022-08-30T09:10:33;2.63;;;2.55;;
66163;SDS011;52962;51.088;3.096;2022-08-30T09:13:16;2.40;;;2.38;;
66163;SDS011;52962;51.088;3.096;2022-08-30T09:15:48;1.90;;;1.90;;
66163;SDS011;52962;51.088;3.096;2022-08-30T09:18:22;2.42;;;2.25;;
66163;SDS011;52962;51.088;3.096;2022-08-30T09:21:11;2.45;;;2.28;;
66163;SDS011;52962;51.088;3.096;2022-08-30T09:23:47;2.58;;;2.47;;
66163;SDS011;52962;51.088;3.096;2022-08-30T09:26:26;2.35;;;2.13;;
66163;SDS011;52962;51.088;3.096;2022-08-30T09:28:56;2.30;;;2.20;;
66163;SDS011;52962;51.088;3.096;2022-08-30T09:31:27;2.22;;;2.17;;
66163;SDS011;52962;51.088;3.096;2022-08-30T09:33:58;2.78;;;2.67;;
66163;SDS011;52962;51.088;3.096;2022-08-30T09:36:30;2.15;;;2.05;;
66163;SDS011;52962;51.088;3.096;2022-08-30T09:39:02;2.88;;;2.78;;
66163;SDS011;52962;51.088;3.096;2022-08-30T09:41:36;2.72;;;2.63;;
66163;SDS011;52962;51.088;3.096;2022-08-30T09:44:09;2.72;;;2.63;;
66163;SDS011;52962;51.088;3.096;2022-08-30T09:46:45;4.32;;;4.20;;
66163;SDS011;52962;51.088;3.096;2022-08-30T09:49:30;4.32;;;4.22;;
66163;SDS011;52962;51.088;3.096;2022-08-30T09:52:07;5.05;;;4.72;;
66163;SDS011;52962;51.088;3.096;2022-08-30T09:54:43;5.65;;;5.45;;
66163;SDS011;52962;51.088;3.096;2022-08-30T09:57:22;5.05;;;4.93;;
66163;SDS011;52962;51.088;3.096;2022-08-30T10:00:03;9.73;;;9.38;;
66163;SDS011;52962;51.088;3.096;2022-08-30T10:02:50;13.25;;;12.80;;
66163;SDS011;52962;51.088;3.096;2022-08-30T10:05:28;12.13;;;11.73;;
66163;SDS011;52962;51.088;3.096;2022-08-30T10:08:05;8.95;;;8.65;;
66163;SDS011;52962;51.088;3.096;2022-08-30T10:10:47;8.45;;;8.15;;
66163;SDS011;52962;51.088;3.096;2022-08-30T10:16:20;12.80;;;12.32;;
66163;SDS011;52962;51.088;3.096;2022-08-30T10:19:03;20.23;;;19.42;;
66163;SDS011;52962;51.088;3.096;2022-08-30T10:21:40;14.75;;;14.18;;
66163;SDS011;52962;51.088;3.096;2022-08-30T10:24:14;17.38;;;16.73;;
66163;SDS011;52962;51.088;3.096;2022-08-30T10:26:49;13.85;;;13.35;;
66163;SDS011;52962;51.088;3.096;2022-08-30T10:29:21;11.57;;;11.18;;
66163;SDS011;52962;51.088;3.096;2022-08-30T10:31:53;7.90;;;7.60;;
66163;SDS011;52962;51.088;3.096;2022-08-30T10:34:26;7.35;;;7.13;;
66163;SDS011;52962;51.088;3.096;2022-08-30T10:37:02;8.75;;;8.40;;
66163;SDS011;52962;51.088;3.096;2022-08-30T10:39:34;8.68;;;8.40;;
66163;SDS011;52962;51.088;3.096;2022-08-30T10:42:09;11.18;;;10.77;;
66163;SDS011;52962;51.088;3.096;2022-08-30T10:44:44;17.98;;;17.27;;
66163;SDS011;52962;51.088;3.096;2022-08-30T10:47:19;21.00;;;20.17;;
66163;SDS011;52962;51.088;3.096;2022-08-30T10:49:54;16.27;;;15.68;;
66163;SDS011;52962;51.088;3.096;2022-08-30T10:52:30;14.55;;;14.02;;
66163;SDS011;52962;51.088;3.096;2022-08-30T10:55:05;11.73;;;11.23;;
66163;SDS011;52962;51.088;3.096;2022-08-30T10:57:37;9.60;;;9.30;;
66163;SDS011;52962;51.088;3.096;2022-08-30T11:00:27;9.43;;;9.13;;
66163;SDS011;52962;51.088;3.096;2022-08-30T11:06:13;7.05;;;6.65;;
66163;SDS011;52962;51.088;3.096;2022-08-30T11:08:57;7.63;;;7.40;;
66163;SDS011;52962;51.088;3.096;2022-08-30T11:11:41;8.95;;;8.65;;
66163;SDS011;52962;51.088;3.096;2022-08-30T11:14:24;8.88;;;8.57;;
66163;SDS011;52962;51.088;3.096;2022-08-30T11:16:53;10.35;;;9.85;;
66163;SDS011;52962;51.088;3.096;2022-08-30T11:19:26;11.18;;;10.77;;
66163;SDS011;52962;51.088;3.096;2022-08-30T11:22:07;15.57;;;14.93;;
66163;SDS011;52962;51.088;3.096;2022-08-30T11:24:59;13.65;;;13.15;;
66163;SDS011;52962;51.088;3.096;2022-08-30T11:27:43;12.55;;;12.07;;
66163;SDS011;52962;51.088;3.096;2022-08-30T11:33:28;10.85;;;10.45;;
66163;SDS011;52962;51.088;3.096;2022-08-30T11:36:07;9.60;;;9.30;;
66163;SDS011;52962;51.088;3.096;2022-08-30T11:41:33;13.13;;;12.60;;
66163;SDS011;52962;51.088;3.096;2022-08-30T11:44:27;11.35;;;10.95;;
66163;SDS011;52962;51.088;3.096;2022-08-30T11:46:59;11.60;;;11.07;;
66163;SDS011;52962;51.088;3.096;2022-08-30T11:49:48;11.68;;;11.27;;
66163;SDS011;52962;51.088;3.096;2022-08-30T11:52:28;11.25;;;10.88;;
66163;SDS011;52962;51.088;3.096;2022-08-30T11:55:15;16.77;;;16.10;;
66163;SDS011;52962;51.088;3.096;2022-08-30T11:57:58;22.10;;;21.20;;
66163;SDS011;52962;51.088;3.096;2022-08-30T12:00:38;23.58;;;22.63;;
66163;SDS011;52962;51.088;3.096;2022-08-30T12:03:24;24.52;;;23.55;;
66163;SDS011;52962;51.088;3.096;2022-08-30T12:05:58;25.98;;;24.92;;
66163;SDS011;52962;51.088;3.096;2022-08-30T12:08:42;24.58;;;23.58;;
66163;SDS011;52962;51.088;3.096;2022-08-30T12:19:58;19.48;;;18.70;;
66163;SDS011;52962;51.088;3.096;2022-08-30T12:22:27;27.02;;;25.92;;
66163;SDS011;52962;51.088;3.096;2022-08-30T12:24:56;17.40;;;16.75;;
66163;SDS011;52962;51.088;3.096;2022-08-30T12:27:26;14.77;;;14.18;;
66163;SDS011;52962;51.088;3.096;2022-08-30T12:29:59;12.18;;;11.73;;
66163;SDS011;52962;51.088;3.096;2022-08-30T12:32:29;18.23;;;17.50;;
66163;SDS011;52962;51.088;3.096;2022-08-30T12:34:59;16.10;;;15.43;;
66163;SDS011;52962;51.088;3.096;2022-08-30T12:37:30;17.98;;;17.20;;
66163;SDS011;52962;51.088;3.096;2022-08-30T12:40:03;17.02;;;16.40;;
66163;SDS011;52962;51.088;3.096;2022-08-30T12:42:36;16.45;;;15.82;;
66163;SDS011;52962;51.088;3.096;2022-08-30T12:45:09;14.85;;;14.30;;
66163;SDS011;52962;51.088;3.096;2022-08-30T12:50:13;11.13;;;10.73;;
66163;SDS011;52962;51.088;3.096;2022-08-30T12:52:45;12.77;;;12.30;;
66163;SDS011;52962;51.088;3.096;2022-08-30T12:55:18;14.68;;;14.15;;
66163;SDS011;52962;51.088;3.096;2022-08-30T12:57:56;12.90;;;12.40;;
66163;SDS011;52962;51.088;3.096;2022-08-30T13:00:28;11.82;;;11.43;;
66163;SDS011;52962;51.088;3.096;2022-08-30T13:02:59;11.32;;;10.93;;
66163;SDS011;52962;51.088;3.096;2022-08-30T13:05:50;13.27;;;12.75;;
66163;SDS011;52962;51.088;3.096;2022-08-30T13:08:20;19.45;;;18.67;;
66163;SDS011;52962;51.088;3.096;2022-08-30T13:10:56;22.05;;;21.10;;
66163;SDS011;52962;51.088;3.096;2022-08-30T13:13:37;26.58;;;25.48;;
66163;SDS011;52962;51.088;3.096;2022-08-30T13:16:23;25.05;;;24.00;;
66163;SDS011;52962;51.088;3.096;2022-08-30T13:18:55;25.77;;;24.73;;
66163;SDS011;52962;51.088;3.096;2022-08-30T13:21:50;27.60;;;26.45;;
66163;SDS011;52962;51.088;3.096;2022-08-30T13:24:19;23.40;;;22.38;;
66163;SDS011;52962;51.088;3.096;2022-08-30T13:26:51;18.70;;;17.98;;
66163;SDS011;52962;51.088;3.096;2022-08-30T13:29:21;17.42;;;16.70;;
66163;SDS011;52962;51.088;3.096;2022-08-30T13:31:51;12.02;;;11.52;;
66163;SDS011;52962;51.088;3.096;2022-08-30T13:34:19;10.00;;;9.65;;
66163;SDS011;52962;51.088;3.096;2022-08-30T13:36:50;8.48;;;8.18;;
66163;SDS011;52962;51.088;3.096;2022-08-30T13:39:22;7.22;;;7.00;;
66163;SDS011;52962;51.088;3.096;2022-08-30T13:41:50;15.73;;;15.15;;
66163;SDS011;52962;51.088;3.096;2022-08-30T13:44:18;8.82;;;8.52;;
66163;SDS011;52962;51.088;3.096;2022-08-30T13:46:47;12.55;;;12.15;;
66163;SDS011;52962;51.088;3.096;2022-08-30T13:49:21;8.02;;;7.68;;
66163;SDS011;52962;51.088;3.096;2022-08-30T13:54:46;7.00;;;6.80;;
66163;SDS011;52962;51.088;3.096;2022-08-30T13:57:15;6.60;;;6.40;;
66163;SDS011;52962;51.088;3.096;2022-08-30T14:00:04;6.07;;;5.88;;
66163;SDS011;52962;51.088;3.096;2022-08-30T14:02:45;7.13;;;6.93;;
66163;SDS011;52962;51.088;3.096;2022-08-30T14:05:20;7.05;;;6.85;;
66163;SDS011;52962;51.088;3.096;2022-08-30T14:08:09;7.57;;;7.35;;
66163;SDS011;52962;51.088;3.096;2022-08-30T14:10:59;8.60;;;8.30;;
66163;SDS011;52962;51.088;3.096;2022-08-30T14:13:27;8.82;;;8.52;;
66163;SDS011;52962;51.088;3.096;2022-08-30T14:15:56;11.18;;;10.75;;
66163;SDS011;52962;51.088;3.096;2022-08-30T14:18:47;9.90;;;9.57;;
66163;SDS011;52962;51.088;3.096;2022-08-30T14:21:15;13.55;;;13.05;;
66163;SDS011;52962;51.088;3.096;2022-08-30T14:23:49;12.02;;;11.57;;
66163;SDS011;52962;51.088;3.096;2022-08-30T14:26:18;12.10;;;11.68;;
66163;SDS011;52962;51.088;3.096;2022-08-30T14:28:49;11.40;;;11.00;;
66163;SDS011;52962;51.088;3.096;2022-08-30T14:31:17;13.00;;;12.40;;
66163;SDS011;52962;51.088;3.096;2022-08-30T14:33:47;13.48;;;12.98;;
66163;SDS011;52962;51.088;3.096;2022-08-30T14:36:15;12.68;;;12.18;;
66163;SDS011;52962;51.088;3.096;2022-08-30T14:38:43;13.13;;;12.63;;
66163;SDS011;52962;51.088;3.096;2022-08-30T14:41:13;11.35;;;10.95;;
66163;SDS011;52962;51.088;3.096;2022-08-30T14:43:41;9.65;;;9.30;;
66163;SDS011;52962;51.088;3.096;2022-08-30T14:46:10;9.65;;;9.35;;
66163;SDS011;52962;51.088;3.096;2022-08-30T14:48:38;9.32;;;9.02;;
66163;SDS011;52962;51.088;3.096;2022-08-30T14:51:13;8.60;;;8.30;;
66163;SDS011;52962;51.088;3.096;2022-08-30T14:53:42;8.55;;;8.25;;
66163;SDS011;52962;51.088;3.096;2022-08-30T14:56:13;8.38;;;8.07;;
66163;SDS011;52962;51.088;3.096;2022-08-30T14:58:46;7.70;;;7.40;;
66163;SDS011;52962;51.088;3.096;2022-08-30T15:01:14;7.53;;;7.30;;
66163;SDS011;52962;51.088;3.096;2022-08-30T15:03:42;6.78;;;6.47;;
66163;SDS011;52962;51.088;3.096;2022-08-30T15:06:11;6.53;;;6.32;;
66163;SDS011;52962;51.088;3.096;2022-08-30T15:08:41;6.55;;;6.35;;
66163;SDS011;52962;51.088;3.096;2022-08-30T15:11:14;6.72;;;6.53;;
66163;SDS011;52962;51.088;3.096;2022-08-30T15:13:43;5.90;;;5.70;;
66163;SDS011;52962;51.088;3.096;2022-08-30T15:16:11;5.82;;;5.63;;
66163;SDS011;52962;51.088;3.096;2022-08-30T15:18:41;5.55;;;5.35;;
66163;SDS011;52962;51.088;3.096;2022-08-30T15:21:09;7.80;;;7.50;;
66163;SDS011;52962;51.088;3.096;2022-08-30T15:23:39;5.47;;;5.30;;
66163;SDS011;52962;51.088;3.096;2022-08-30T15:26:07;8.18;;;7.88;;
66163;SDS011;52962;51.088;3.096;2022-08-30T15:28:35;6.75;;;6.55;;
66163;SDS011;52962;51.088;3.096;2022-08-30T15:31:03;5.70;;;5.50;;
66163;SDS011;52962;51.088;3.096;2022-08-30T15:33:34;6.13;;;5.93;;
66163;SDS011;52962;51.088;3.096;2022-08-30T15:36:03;5.25;;;5.15;;
66163;SDS011;52962;51.088;3.096;2022-08-30T15:38:32;6.88;;;6.68;;
66163;SDS011;52962;51.088;3.096;2022-08-30T15:41:04;5.38;;;5.18;;
66163;SDS011;52962;51.088;3.096;2022-08-30T15:43:34;7.28;;;7.05;;
66163;SDS011;52962;51.088;3.096;2022-08-30T15:46:14;7.55;;;7.25;;
66163;SDS011;52962;51.088;3.096;2022-08-30T15:48:44;8.55;;;8.23;;
66163;SDS011;52962;51.088;3.096;2022-08-30T15:51:13;9.38;;;9.05;;
66163;SDS011;52962;51.088;3.096;2022-08-30T15:53:43;9.43;;;9.13;;
66163;SDS011;52962;51.088;3.096;2022-08-30T15:56:13;9.77;;;9.43;;
66163;SDS011;52962;51.088;3.096;2022-08-30T15:58:41;10.68;;;10.32;;
66163;SDS011;52962;51.088;3.096;2022-08-30T16:01:13;9.98;;;9.68;;
66163;SDS011;52962;51.088;3.096;2022-08-30T16:03:45;10.60;;;10.20;;
66163;SDS011;52962;51.088;3.096;2022-08-30T16:06:14;11.13;;;10.63;;
66163;SDS011;52962;51.088;3.096;2022-08-30T16:08:43;11.23;;;10.82;;